PWSweather.com
Personal Weather Stations
Station Observations

AwhituWaiuku, CA 268400

Lat: -37.058, Lon: -174.6346

Elevation: 250

Station Type: Personal

http://www.weather-display.com/windy/gb/grahamsbeach.htm

Latest ConditionsUpdated 6:00:03 PM GMT-12:48 Friday, Jan 17, 2020
Currently Today's Max Today's Min Today's Average
Temperature 67.4°F19.7°C 72.2°F22.3°C 56.1°F13.4°C 64.1°F17.8°C
Dew Point 58.0°F14.4°C 62.5°F16.9°C 53.1°F11.7°C 58.0°F14.4°C
Winds 10.4 mph WSW16.7 kmh WSW 16.1 mph -25.9 kmh - - 5.9 mph 9.5 kmh
Wind Gusts 16.1 mph25.9 kmh 19.6 mph31.5 kmh - -
Humidity 72% 95% 67% 81%
Pressure 29.89 in1012.2 mb 30.02 in1016.6 mb 29.88 in1011.9 mb -
Precipitation - 0.01 in0.3 mm - -
Hour Temp Dew Point Humidity Winds Wind Gusts Pressure Precip Precip Rate Daily Precip Total
06:00 PM 67.4°F19.7°C 58.0°F14.4°C 72% 10.4 mph WSW16.7 kmh WSW 16.1 mph25.9 kmh 29.89 in1012.2 mb - 0.00 in0.0 mm 0.01 in0.3 mm
05:30 PM 68.5°F20.3°C 58.0°F14.4°C 69% 9.2 mph WSW14.8 kmh WSW 11.5 mph18.5 kmh 29.88 in1011.9 mb - 0.00 in0.0 mm 0.01 in0.3 mm
05:00 PM 70.1°F21.2°C 59.0°F15.0°C 68% 12.7 mph W20.4 kmh W 18.4 mph29.6 kmh 29.89 in1012.2 mb - 0.00 in0.0 mm 0.01 in0.3 mm
04:30 PM 70.8°F21.6°C 59.3°F15.2°C 67% 13.8 mph W22.2 kmh W 17.3 mph27.8 kmh 29.90 in1012.5 mb - 0.00 in0.0 mm 0.01 in0.3 mm
04:00 PM 71.3°F21.8°C 59.8°F15.4°C 67% 15.0 mph WSW24.1 kmh WSW 19.6 mph31.5 kmh 29.91 in1012.9 mb - 0.00 in0.0 mm 0.01 in0.3 mm
03:30 PM 71.8°F22.1°C 60.7°F15.9°C 68% 16.1 mph W25.9 kmh W 18.4 mph29.6 kmh 29.91 in1012.9 mb - 0.00 in0.0 mm 0.01 in0.3 mm
03:00 PM 71.4°F21.9°C 60.7°F15.9°C 69% 13.8 mph WSW22.2 kmh WSW 17.3 mph27.8 kmh 29.92 in1013.2 mb - 0.00 in0.0 mm 0.01 in0.3 mm
02:30 PM 70.7°F21.5°C 60.8°F16.0°C 71% 16.1 mph WSW25.9 kmh WSW 18.4 mph29.6 kmh 29.92 in1013.2 mb - 0.00 in0.0 mm 0.01 in0.3 mm
02:00 PM 72.2°F22.3°C 61.5°F16.4°C 69% 13.8 mph WSW22.2 kmh WSW 18.4 mph29.6 kmh 29.93 in1013.5 mb - 0.00 in0.0 mm 0.01 in0.3 mm
01:30 PM 71.5°F21.9°C 60.8°F16.0°C 69% 9.2 mph WSW14.8 kmh WSW 15.0 mph24.1 kmh 29.94 in1013.9 mb - 0.01 in0.3 mm 0.01 in0.3 mm
01:00 PM 71.8°F22.1°C 60.7°F15.9°C 68% 12.7 mph SW20.4 kmh SW 16.1 mph25.9 kmh 29.94 in1013.9 mb - 0.01 in0.3 mm 0.01 in0.3 mm
12:30 PM 70.1°F21.2°C 59.9°F15.5°C 70% 8.1 mph SW13.0 kmh SW 13.8 mph22.2 kmh 29.95 in1014.2 mb - 0.00 in0.0 mm 0.00 in0.0 mm
12:00 PM 71.5°F21.9°C 60.8°F16.0°C 69% 9.2 mph SW14.8 kmh SW 11.5 mph18.5 kmh 29.96 in1014.6 mb - 0.00 in0.0 mm 0.00 in0.0 mm
11:30 AM 70.2°F21.2°C 60.0°F15.6°C 70% 6.9 mph SW11.1 kmh SW 11.5 mph18.5 kmh 29.96 in1014.6 mb - 0.00 in0.0 mm 0.00 in0.0 mm
11:00 AM 70.1°F21.2°C 61.0°F16.1°C 73% 9.2 mph SW14.8 kmh SW 11.5 mph18.5 kmh 29.97 in1014.9 mb - 0.00 in0.0 mm 0.00 in0.0 mm
10:30 AM 71.2°F21.8°C 61.3°F16.3°C 71% 6.9 mph SW11.1 kmh SW 9.2 mph14.8 kmh 29.98 in1015.2 mb - 0.00 in0.0 mm 0.00 in0.0 mm
10:00 AM 69.4°F20.8°C 61.1°F16.2°C 75% 6.9 mph SW11.1 kmh SW 9.2 mph14.8 kmh 29.98 in1015.2 mb - 0.00 in0.0 mm 0.00 in0.0 mm
09:30 AM 66.4°F19.1°C 59.4°F15.2°C 78% 5.8 mph SW9.3 kmh SW 6.9 mph11.1 kmh 29.99 in1015.6 mb - 0.00 in0.0 mm 0.00 in0.0 mm
09:00 AM 65.8°F18.8°C 61.8°F16.6°C 87% 6.9 mph WSW11.1 kmh WSW 9.2 mph14.8 kmh 29.99 in1015.6 mb - 0.00 in0.0 mm 0.00 in0.0 mm
08:30 AM 64.2°F17.9°C 61.2°F16.2°C 90% 1.2 mph SE1.9 kmh SE 2.3 mph3.7 kmh 30.00 in1015.9 mb - 0.00 in0.0 mm 0.00 in0.0 mm
08:00 AM 64.3°F17.9°C 62.5°F16.9°C 94% 1.2 mph SE1.9 kmh SE 1.2 mph1.9 kmh 30.01 in1016.3 mb - 0.00 in0.0 mm 0.00 in0.0 mm
07:30 AM 61.0°F16.1°C 59.5°F15.3°C 95% Calm Calm -- 30.00 in1015.9 mb - 0.00 in0.0 mm 0.00 in0.0 mm
07:00 AM 58.0°F14.4°C 56.6°F13.7°C 95% Calm Calm -- 30.01 in1016.3 mb - 0.00 in0.0 mm 0.00 in0.0 mm
06:30 AM 56.2°F13.4°C 54.5°F12.5°C 94% 1.2 mph SE1.9 kmh SE 2.3 mph3.7 kmh 30.01 in1016.3 mb - 0.00 in0.0 mm 0.00 in0.0 mm
06:00 AM 56.6°F13.7°C 54.9°F12.7°C 94% Calm Calm -- 30.00 in1015.9 mb - 0.00 in0.0 mm 0.00 in0.0 mm
05:30 AM 57.2°F14.0°C 55.5°F13.1°C 94% Calm Calm -- 30.00 in1015.9 mb - 0.00 in0.0 mm 0.00 in0.0 mm
05:00 AM 57.5°F14.2°C 55.8°F13.2°C 94% Calm Calm 2.3 mph3.7 kmh 29.99 in1015.6 mb - 0.00 in0.0 mm 0.00 in0.0 mm
04:30 AM 57.1°F13.9°C 55.4°F13.0°C 94% 1.2 mph WSW1.9 kmh WSW 2.3 mph3.7 kmh 29.99 in1015.6 mb - 0.00 in0.0 mm 0.00 in0.0 mm
04:00 AM 56.8°F13.8°C 54.8°F12.7°C 93% 1.2 mph WSW1.9 kmh WSW 2.3 mph3.7 kmh 29.99 in1015.6 mb - 0.00 in0.0 mm 0.00 in0.0 mm
03:30 AM 56.8°F13.8°C 54.8°F12.7°C 93% 2.3 mph WSW3.7 kmh WSW 3.5 mph5.6 kmh 29.99 in1015.6 mb - 0.00 in0.0 mm 0.00 in0.0 mm
03:00 AM 56.4°F13.6°C 54.4°F12.4°C 93% 1.2 mph W1.9 kmh W 1.2 mph1.9 kmh 29.99 in1015.6 mb - 0.00 in0.0 mm 0.00 in0.0 mm
02:30 AM 56.3°F13.5°C 53.7°F12.1°C 91% 3.5 mph SW5.6 kmh SW 3.5 mph5.6 kmh 30.00 in1015.9 mb - 0.00 in0.0 mm 0.00 in0.0 mm
02:00 AM 56.1°F13.4°C 53.2°F11.8°C 90% Calm Calm -- 30.00 in1015.9 mb - 0.00 in0.0 mm 0.00 in0.0 mm
01:30 AM 56.5°F13.6°C 53.9°F12.2°C 91% Calm Calm -- 30.00 in1015.9 mb - 0.00 in0.0 mm 0.00 in0.0 mm
01:00 AM 56.3°F13.5°C 53.1°F11.7°C 89% 1.2 mph S1.9 kmh S 2.3 mph3.7 kmh 30.00 in1015.9 mb - 0.00 in0.0 mm 0.00 in0.0 mm
12:30 AM 57.1°F13.9°C 54.2°F12.3°C 90% Calm Calm -- 30.01 in1016.3 mb - 0.00 in0.0 mm 0.00 in0.0 mm
12:00 AM 56.9°F13.8°C 53.4°F11.9°C 88% 1.2 mph S1.9 kmh S 2.3 mph3.7 kmh 30.02 in1016.6 mb - 0.00 in0.0 mm 0.00 in0.0 mm